createdAt,value
2018-09-28T00:00:59.751Z,0
2018-09-28T00:02:14.147Z,0
2018-09-28T00:03:27.978Z,0
2018-09-28T00:04:41.565Z,0
2018-09-28T00:05:55.610Z,0
2018-09-28T00:07:09.871Z,0
2018-09-28T00:08:24.389Z,0
2018-09-28T00:09:38.685Z,0
2018-09-28T00:10:52.730Z,0
2018-09-28T00:12:06.760Z,0
2018-09-28T00:13:20.094Z,0
2018-09-28T00:14:34.794Z,0
2018-09-28T00:15:48.381Z,0
2018-09-28T00:17:02.424Z,0
2018-09-28T00:18:15.990Z,0
2018-09-28T00:19:30.502Z,0
2018-09-28T00:20:44.786Z,0
2018-09-28T00:21:58.395Z,0
2018-09-28T00:23:12.888Z,0
2018-09-28T00:24:26.562Z,0
2018-09-28T00:25:40.594Z,0
2018-09-28T00:26:54.969Z,0
2018-09-28T00:28:08.523Z,0
2018-09-28T00:29:22.107Z,0
2018-09-28T00:37:15.307Z,0
2018-09-28T00:38:29.607Z,0
2018-09-28T00:39:43.859Z,0
2018-09-28T00:40:57.455Z,0
2018-09-28T00:42:11.486Z,0
2018-09-28T00:43:25.440Z,0
2018-09-28T00:44:39.756Z,0
2018-09-28T00:45:54.013Z,0
2018-09-28T00:47:08.050Z,0
2018-09-28T00:48:22.067Z,0
2018-09-28T00:49:35.855Z,0
2018-09-28T00:50:50.151Z,0
2018-09-28T00:52:04.418Z,0
2018-09-28T00:53:18.462Z,0
2018-09-28T00:54:32.754Z,0
2018-09-28T00:55:46.782Z,0
2018-09-28T00:57:01.152Z,0
2018-09-28T00:58:14.954Z,0
2018-09-28T00:59:28.763Z,0
2018-09-28T01:00:42.591Z,0
2018-09-28T01:01:56.615Z,0
2018-09-28T01:03:10.794Z,0
2018-09-28T01:04:24.855Z,0
2018-09-28T01:05:38.882Z,0
2018-09-28T01:06:53.350Z,0
2018-09-28T01:08:07.174Z,0
2018-09-28T01:09:21.367Z,0
2018-09-28T01:10:35.653Z,0
2018-09-28T01:13:19.327Z,0
2018-09-28T01:14:33.366Z,0
2018-09-28T01:15:47.034Z,0
2018-09-28T01:17:00.866Z,0
2018-09-28T01:18:15.127Z,0
2018-09-28T01:19:29.386Z,0
2018-09-28T01:20:43.426Z,0
2018-09-28T01:21:57.493Z,0
2018-09-28T01:23:11.510Z,0
2018-09-28T01:24:25.056Z,0
2018-09-28T01:25:39.090Z,0
2018-09-28T01:27:08.527Z,0
2018-09-28T01:28:23.383Z,0
2018-09-28T01:29:37.277Z,0
2018-09-28T01:30:51.316Z,0
2018-09-28T01:32:04.942Z,0
2018-09-28T01:33:18.516Z,0
2018-09-28T01:34:33.048Z,0
2018-09-28T01:35:46.860Z,0
2018-09-28T01:37:15.809Z,0
2018-09-28T01:38:29.576Z,0
2018-09-28T01:39:43.438Z,0
2018-09-28T01:41:56.236Z,0
2018-09-28T01:43:10.257Z,0
2018-09-28T01:44:23.612Z,0
2018-09-28T01:45:37.934Z,0
2018-09-28T01:46:51.741Z,0
2018-09-28T01:48:05.327Z,0
2018-09-28T01:49:18.967Z,0
2018-09-28T01:50:32.792Z,0
2018-09-28T01:51:47.162Z,0
2018-09-28T01:53:00.506Z,0
2018-09-28T01:54:15.021Z,0
2018-09-28T01:55:29.043Z,0
2018-09-28T01:56:42.650Z,0
2018-09-28T01:57:57.187Z,0
2018-09-28T01:59:10.998Z,0
2018-09-28T02:00:24.562Z,0
2018-09-28T02:01:38.851Z,0
2018-09-28T02:02:52.750Z,0
2018-09-28T02:04:06.662Z,0
2018-09-28T02:05:20.705Z,0
2018-09-28T02:06:35.228Z,0
2018-09-28T02:07:49.286Z,0
2018-09-28T02:09:03.346Z,0
2018-09-28T02:10:17.458Z,0
2018-09-28T02:11:31.330Z,0
2018-09-28T02:12:45.348Z,0
2018-09-28T02:13:59.432Z,0
2018-09-28T02:15:13.007Z,0
2018-09-28T02:16:26.487Z,0
2018-09-28T02:17:40.043Z,0
2018-09-28T02:18:54.078Z,0
2018-09-28T02:20:08.137Z,0
2018-09-28T02:21:21.965Z,0
2018-09-28T02:22:36.262Z,0
2018-09-28T02:23:50.282Z,0
2018-09-28T02:25:04.334Z,0
2018-09-28T02:26:18.380Z,0
2018-09-28T02:27:32.181Z,0
2018-09-28T02:28:46.282Z,0
2018-09-28T02:30:00.306Z,0
2018-09-28T02:31:14.591Z,0
2018-09-28T02:32:28.383Z,0
2018-09-28T02:33:41.988Z,0
2018-09-28T02:34:56.318Z,0
2018-09-28T02:36:09.966Z,0
2018-09-28T02:37:24.498Z,0
2018-09-28T02:38:38.788Z,0
2018-09-28T02:39:52.849Z,0
2018-09-28T02:41:07.381Z,0
2018-09-28T02:42:21.078Z,0
2018-09-28T02:43:34.886Z,0
2018-09-28T02:44:48.936Z,0
2018-09-28T02:46:03.232Z,0
2018-09-28T02:47:17.341Z,0
2018-09-28T02:48:31.762Z,0
2018-09-28T02:49:45.340Z,0
2018-09-28T02:50:59.152Z,0
2018-09-28T02:52:12.725Z,0
2018-09-28T02:53:26.911Z,0
2018-09-28T02:54:40.712Z,0
2018-09-28T02:55:54.619Z,0
2018-09-28T02:57:09.693Z,0
2018-09-28T02:58:23.511Z,0
2018-09-28T02:59:37.564Z,0
2018-09-28T03:00:51.625Z,0
2018-09-28T03:02:05.655Z,0
2018-09-28T03:03:19.721Z,0
2018-09-28T03:04:33.770Z,0
2018-09-28T03:05:48.045Z,0
2018-09-28T03:07:01.842Z,0
2018-09-28T03:08:16.131Z,0
2018-09-28T03:09:29.802Z,0
2018-09-28T03:10:44.471Z,0
2018-09-28T03:11:58.805Z,0
2018-09-28T03:13:12.882Z,0
2018-09-28T03:14:27.140Z,0
2018-09-28T03:15:40.985Z,0
2018-09-28T03:16:55.282Z,0
2018-09-28T03:18:09.953Z,0
2018-09-28T03:19:23.732Z,0
2018-09-28T03:22:35.592Z,0
2018-09-28T03:23:50.171Z,0
2018-09-28T03:25:04.021Z,0
2018-09-28T03:26:18.290Z,0
2018-09-28T03:27:31.855Z,0
2018-09-28T03:28:45.990Z,0
2018-09-28T03:30:00.257Z,0
2018-09-28T03:31:14.578Z,0
2018-09-28T03:32:28.372Z,0
2018-09-28T03:33:42.437Z,0
2018-09-28T03:34:56.360Z,0
2018-09-28T03:36:10.694Z,0
2018-09-28T03:37:25.207Z,0
2018-09-28T03:38:39.478Z,0
2018-09-28T03:39:53.059Z,0
2018-09-28T03:41:06.903Z,0
2018-09-28T03:42:21.303Z,0
2018-09-28T03:43:34.627Z,0
2018-09-28T03:44:48.703Z,0
2018-09-28T03:46:02.538Z,0
2018-09-28T03:47:16.829Z,0
2018-09-28T03:48:31.265Z,0
2018-09-28T03:49:45.589Z,0
2018-09-28T03:50:59.419Z,0
2018-09-28T03:52:13.259Z,0
2018-09-28T03:53:27.528Z,0
2018-09-28T03:54:41.955Z,0
2018-09-28T03:55:56.032Z,0
2018-09-28T03:57:09.373Z,0
2018-09-28T03:58:23.199Z,0
2018-09-28T03:59:37.268Z,0
2018-09-28T04:00:50.931Z,0
2018-09-28T04:02:05.008Z,0
2018-09-28T04:03:19.555Z,0
2018-09-28T04:04:33.818Z,0
2018-09-28T04:07:17.067Z,0
2018-09-28T04:09:15.148Z,0
2018-09-28T04:10:28.990Z,0
2018-09-28T04:11:42.920Z,0
2018-09-28T04:12:57.474Z,0
2018-09-28T04:14:11.747Z,0
2018-09-28T04:15:25.615Z,0
2018-09-28T04:16:39.173Z,0
2018-09-28T04:17:52.997Z,0
2018-09-28T04:19:07.548Z,0
2018-09-28T04:20:21.123Z,0
2018-09-28T04:21:35.167Z,0
2018-09-28T04:22:48.995Z,0
2018-09-28T04:24:03.053Z,0
2018-09-28T04:25:17.449Z,0
2018-09-28T04:26:31.490Z,0
2018-09-28T04:27:45.629Z,0
2018-09-28T04:28:59.458Z,0
2018-09-28T04:30:13.539Z,0
2018-09-28T04:31:28.105Z,0
2018-09-28T04:32:42.666Z,0
2018-09-28T04:33:57.217Z,0
2018-09-28T04:35:11.033Z,0
2018-09-28T04:36:25.088Z,0
2018-09-28T04:37:38.921Z,0
2018-09-28T04:38:52.982Z,0
2018-09-28T04:40:06.632Z,0
2018-09-28T04:41:20.700Z,0
2018-09-28T04:42:34.306Z,0
2018-09-28T04:43:48.380Z,0
2018-09-28T04:45:02.488Z,0
2018-09-28T04:46:16.663Z,0
2018-09-28T04:47:30.942Z,0
2018-09-28T04:48:45.106Z,0
2018-09-28T04:49:59.872Z,4
2018-09-28T04:51:13.942Z,0
2018-09-28T04:52:28.012Z,4
2018-09-28T04:53:42.075Z,4
2018-09-28T04:54:55.679Z,4
2018-09-28T04:56:10.294Z,8
2018-09-28T04:57:24.845Z,8
2018-09-28T04:58:38.897Z,8
2018-09-28T05:00:07.441Z,12
2018-09-28T05:01:21.969Z,12
2018-09-28T05:02:36.132Z,16
2018-09-28T05:03:50.209Z,20
2018-09-28T05:05:03.819Z,20
2018-09-28T05:06:18.117Z,28
2018-09-28T05:07:32.479Z,36
2018-09-28T05:08:47.286Z,36
2018-09-28T05:10:01.060Z,48
2018-09-28T05:11:14.459Z,52
2018-09-28T05:12:28.802Z,60
2018-09-28T05:13:42.846Z,72
2018-09-28T05:15:11.577Z,88
2018-09-28T05:16:25.627Z,96
2018-09-28T05:17:40.146Z,112
2018-09-28T05:19:09.218Z,128
2018-09-28T05:20:23.090Z,144
2018-09-28T05:21:37.029Z,160
2018-09-28T05:22:51.340Z,176
2018-09-28T05:24:05.363Z,196
2018-09-28T05:25:19.532Z,212
2018-09-28T05:26:34.778Z,228
2018-09-28T05:27:48.868Z,252
2018-09-28T05:29:02.708Z,276
2018-09-28T05:30:16.580Z,296
2018-09-28T05:31:31.862Z,320
2018-09-28T05:32:47.737Z,344
2018-09-28T05:34:02.143Z,372
2018-09-28T05:35:16.207Z,400
2018-09-28T05:40:26.721Z,528
2018-09-28T05:41:40.773Z,560
2018-09-28T05:42:54.127Z,584
2018-09-28T05:44:22.888Z,620
2018-09-28T05:45:37.430Z,652
2018-09-28T05:46:51.727Z,688
2018-09-28T05:48:06.252Z,724
2018-09-28T05:49:20.348Z,764
2018-09-28T05:50:34.173Z,796
2018-09-28T05:51:48.241Z,828
2018-09-28T05:53:02.291Z,856
2018-09-28T05:54:16.482Z,888
2018-09-28T05:55:31.179Z,920
2018-09-28T05:56:45.724Z,952
2018-09-28T05:58:00.473Z,976
2018-09-28T05:59:14.325Z,1008
2018-09-28T06:00:28.379Z,1040
2018-09-28T06:01:42.667Z,1072
2018-09-28T06:02:57.020Z,1100
2018-09-28T06:04:11.126Z,1132
2018-09-28T06:05:40.614Z,1176
2018-09-28T06:06:55.171Z,1212
2018-09-28T06:08:09.224Z,1240
2018-09-28T06:09:23.398Z,1260
2018-09-28T06:10:37.926Z,1284
2018-09-28T06:11:51.792Z,1312
2018-09-28T06:13:06.132Z,1336
2018-09-28T06:14:20.206Z,1352
2018-09-28T06:15:34.533Z,1360
2018-09-28T06:16:48.377Z,1372
2018-09-28T06:18:17.216Z,1396
2018-09-28T06:19:31.418Z,1408
2018-09-28T06:20:46.097Z,1428
2018-09-28T06:22:00.701Z,1444
2018-09-28T06:23:14.545Z,1464
2018-09-28T06:24:28.231Z,1484
2018-09-28T06:25:42.542Z,1500
2018-09-28T06:26:56.256Z,1516
2018-09-28T06:28:10.569Z,1524
2018-09-28T06:29:24.647Z,1540
2018-09-28T06:30:39.081Z,1548
2018-09-28T06:31:52.903Z,1564
2018-09-28T06:33:06.987Z,1592
2018-09-28T06:34:21.371Z,1608
2018-09-28T06:35:35.772Z,1616
2018-09-28T06:36:50.207Z,1628
2018-09-28T06:38:04.064Z,1640
2018-09-28T06:39:18.397Z,1656
2018-09-28T06:40:32.536Z,1664
2018-09-28T06:41:46.550Z,1672
2018-09-28T06:43:00.586Z,1676
2018-09-28T06:44:14.424Z,1680
2018-09-28T06:45:28.009Z,1696
2018-09-28T06:46:57.299Z,1704
2018-09-28T06:48:12.099Z,1712
2018-09-28T06:49:26.598Z,1720
2018-09-28T06:50:40.467Z,1728
2018-09-28T06:51:54.539Z,1732
2018-09-28T06:53:08.399Z,1740
2018-09-28T06:54:23.218Z,1752
2018-09-28T06:55:37.502Z,1760
2018-09-28T06:56:51.120Z,1756
2018-09-28T06:58:05.526Z,1756
2018-09-28T06:59:20.422Z,1760
2018-09-28T07:00:34.543Z,1760
2018-09-28T07:01:48.570Z,1764
2018-09-28T07:03:03.109Z,1764
2018-09-28T07:04:17.153Z,1776
2018-09-28T07:05:31.776Z,1796
2018-09-28T07:06:45.396Z,1804
2018-09-28T07:07:59.772Z,1796
2018-09-28T07:09:13.652Z,1784
2018-09-28T07:10:27.612Z,1788
2018-09-28T07:11:41.706Z,1796
2018-09-28T07:12:56.296Z,1804
2018-09-28T07:14:10.903Z,1812
2018-09-28T07:15:24.999Z,1800
2018-09-28T07:16:39.021Z,1808
2018-09-28T07:17:54.078Z,1824
2018-09-28T07:19:07.166Z,1836
2018-09-28T07:20:21.658Z,1832
2018-09-28T07:21:35.729Z,1836
2018-09-28T07:22:50.140Z,1844
2018-09-28T07:24:05.420Z,1848
2018-09-28T07:25:20.379Z,1840
2018-09-28T07:26:35.309Z,1840
2018-09-28T07:27:49.860Z,1840
2018-09-28T07:29:03.725Z,1848
2018-09-28T07:30:18.514Z,1864
2018-09-28T07:31:32.722Z,1860
2018-09-28T07:32:46.549Z,1852
2018-09-28T07:34:00.645Z,1848
2018-09-28T07:35:14.741Z,1852
2018-09-28T07:36:30.651Z,1852
2018-09-28T07:37:45.494Z,1860
2018-09-28T07:38:59.591Z,1872
2018-09-28T07:40:13.743Z,1880
2018-09-28T07:41:28.061Z,1884
2018-09-28T07:42:42.502Z,1884
2018-09-28T07:43:56.811Z,1892
2018-09-28T07:45:11.240Z,1908
2018-09-28T07:46:25.584Z,1908
2018-09-28T07:47:39.907Z,1920
2018-09-28T07:48:54.770Z,1928
2018-09-28T07:50:08.592Z,1936
2018-09-28T07:51:22.737Z,1936
2018-09-28T07:52:36.915Z,1948
2018-09-28T07:53:50.746Z,1952
2018-09-28T07:55:05.065Z,1960
2018-09-28T07:56:18.925Z,1972
2018-09-28T07:57:33.587Z,1984
2018-09-28T07:58:47.671Z,1976
2018-09-28T08:00:01.496Z,1968
2018-09-28T08:01:15.658Z,1964
2018-09-28T08:02:29.591Z,1972
2018-09-28T08:03:43.678Z,1976
2018-09-28T08:04:57.610Z,1984
2018-09-28T08:06:12.032Z,1988
2018-09-28T08:07:26.182Z,1976
2018-09-28T08:08:40.503Z,1984
2018-09-28T08:09:54.572Z,1992
2018-09-28T08:11:08.154Z,1988
2018-09-28T08:12:22.467Z,2004
2018-09-28T08:13:36.393Z,1984
2018-09-28T08:14:50.706Z,1980
2018-09-28T08:16:04.559Z,1984
2018-09-28T08:17:18.667Z,1992
2018-09-28T08:18:32.544Z,1984
2018-09-28T08:19:46.635Z,1984
2018-09-28T08:21:01.170Z,1992
2018-09-28T08:22:15.732Z,1992
2018-09-28T08:23:30.316Z,1984
2018-09-28T08:24:44.765Z,1984
2018-09-28T08:25:59.501Z,1984
2018-09-28T08:27:13.832Z,1984
2018-09-28T08:28:27.938Z,1976
2018-09-28T08:29:42.232Z,1968
2018-09-28T08:30:56.384Z,1964
2018-09-28T08:32:10.515Z,1968
2018-09-28T08:33:24.154Z,1976
2018-09-28T08:34:38.011Z,1980
2018-09-28T08:35:52.348Z,1976
2018-09-28T08:37:06.655Z,1980
2018-09-28T08:38:21.012Z,1984
2018-09-28T08:39:34.958Z,1980
2018-09-28T08:40:49.300Z,1984
2018-09-28T08:42:03.677Z,1988
2018-09-28T08:43:18.034Z,1992
2018-09-28T08:44:32.678Z,1996
2018-09-28T08:45:47.237Z,2012
2018-09-28T08:47:00.607Z,2020
2018-09-28T08:48:14.760Z,2028
2018-09-28T08:49:29.478Z,2032
2018-09-28T08:50:43.814Z,2040
2018-09-28T08:51:58.389Z,2048
2018-09-28T08:53:12.923Z,2048
2018-09-28T08:54:26.391Z,2044
2018-09-28T08:55:40.023Z,2044
2018-09-28T08:56:53.905Z,2032
2018-09-28T08:58:08.459Z,2040
2018-09-28T08:59:22.313Z,2040
2018-09-28T09:00:36.889Z,2036
2018-09-28T09:01:50.981Z,2044
2018-09-28T09:03:05.099Z,2048
2018-09-28T09:04:18.774Z,2040
2018-09-28T09:05:33.353Z,2048
2018-09-28T09:07:31.493Z,2056
2018-09-28T09:08:45.888Z,2052
2018-09-28T09:10:00.033Z,2068
2018-09-28T09:11:13.629Z,2072
2018-09-28T09:12:28.066Z,2072
2018-09-28T09:13:42.005Z,2072
2018-09-28T09:14:56.418Z,2076
2018-09-28T09:16:10.371Z,2076
2018-09-28T09:17:24.528Z,2076
2018-09-28T09:18:38.643Z,2072
2018-09-28T09:19:53.275Z,2076
2018-09-28T09:21:07.640Z,2072
2018-09-28T09:22:22.499Z,2076
2018-09-28T09:23:37.105Z,2076
2018-09-28T09:24:51.659Z,2080
2018-09-28T09:26:06.324Z,2088
2018-09-28T09:27:20.296Z,2096
2018-09-28T09:28:34.429Z,2100
2018-09-28T09:30:18.423Z,2096
2018-09-28T09:31:32.570Z,2100
2018-09-28T09:32:47.483Z,2112
2018-09-28T09:34:01.843Z,2124
2018-09-28T09:35:16.214Z,2132
2018-09-28T09:36:30.477Z,2144
2018-09-28T09:37:44.733Z,2148
2018-09-28T09:38:59.126Z,2160
2018-09-28T09:40:13.562Z,2164
2018-09-28T09:41:27.909Z,2168
2018-09-28T09:42:42.119Z,2164
2018-09-28T09:44:55.921Z,2144
2018-09-28T09:46:09.682Z,2136
2018-09-28T09:47:24.022Z,2132
2018-09-28T09:48:38.253Z,2140
2018-09-28T09:49:52.595Z,2148
2018-09-28T09:51:06.942Z,2144
2018-09-28T09:52:21.324Z,2144
2018-09-28T09:53:35.671Z,2152
2018-09-28T09:54:50.004Z,2152
2018-09-28T09:56:04.169Z,2140
2018-09-28T09:57:33.219Z,2140
2018-09-28T09:58:47.426Z,2144
2018-09-28T10:00:01.636Z,2164
2018-09-28T10:01:15.525Z,2144
2018-09-28T10:02:29.895Z,2156
2018-09-28T10:03:43.773Z,2100
2018-09-28T10:04:58.128Z,1768
2018-09-28T10:06:12.494Z,1992
2018-09-28T10:07:27.112Z,2072
2018-09-28T10:08:41.019Z,2132
2018-09-28T10:09:55.527Z,2180
2018-09-28T10:11:09.143Z,2288
2018-09-28T10:12:23.719Z,2288
2018-09-28T10:13:38.014Z,2260
2018-09-28T10:14:52.617Z,2224
2018-09-28T10:16:07.187Z,2092
2018-09-28T10:17:21.171Z,2172
2018-09-28T10:18:35.390Z,2172
2018-09-28T10:19:50.388Z,2180
2018-09-28T10:21:04.812Z,2168
2018-09-28T10:22:19.015Z,2060
2018-09-28T10:23:33.128Z,1624
2018-09-28T10:24:47.756Z,1884
2018-09-28T10:26:01.960Z,1928
2018-09-28T10:27:16.692Z,1652
2018-09-28T10:28:31.879Z,1600
2018-09-28T10:29:46.081Z,1792
2018-09-28T10:31:00.496Z,2012
2018-09-28T10:32:14.875Z,1984
2018-09-28T10:37:10.771Z,2320
2018-09-28T10:38:24.455Z,1940
2018-09-28T10:39:39.153Z,2292
2018-09-28T10:40:54.743Z,2212
2018-09-28T10:42:09.402Z,2252
2018-09-28T10:43:23.481Z,2260
2018-09-28T10:44:37.812Z,2236
2018-09-28T10:45:52.704Z,2392
2018-09-28T10:47:07.299Z,2536
2018-09-28T10:48:36.090Z,3044
2018-09-28T10:49:50.674Z,3256
2018-09-28T10:51:05.346Z,3420
2018-09-28T10:52:20.994Z,3512
2018-09-28T10:53:35.354Z,3592
2018-09-28T10:54:49.227Z,3536
2018-09-28T10:56:03.806Z,3696
2018-09-28T10:57:17.815Z,3576
2018-09-28T10:58:33.009Z,3628
2018-09-28T10:59:47.492Z,3812
2018-09-28T11:01:02.129Z,3968
2018-09-28T11:02:16.695Z,4092
2018-09-28T11:03:31.425Z,4176
2018-09-28T11:04:45.716Z,4480
2018-09-28T11:05:59.522Z,4792
2018-09-28T11:07:13.409Z,4720
2018-09-28T11:08:27.604Z,4952
2018-09-28T11:09:41.558Z,4792
2018-09-28T11:10:56.562Z,4736
2018-09-28T11:12:10.940Z,4612
2018-09-28T11:13:25.023Z,4456
2018-09-28T11:14:39.387Z,4272
2018-09-28T11:15:54.188Z,4336
2018-09-28T11:17:08.319Z,4456
2018-09-28T11:18:22.426Z,4568
2018-09-28T11:19:36.334Z,4608
2018-09-28T11:20:50.423Z,4568
2018-09-28T11:22:04.306Z,4552
2018-09-28T11:23:18.679Z,4604
2018-09-28T11:24:33.150Z,4772
2018-09-28T11:25:47.522Z,4860
2018-09-28T11:27:01.207Z,4760
2018-09-28T11:28:15.552Z,4592
2018-09-28T11:29:29.506Z,4524
2018-09-28T11:30:43.396Z,4864
2018-09-28T11:31:57.454Z,4876
2018-09-28T11:33:11.537Z,4856
2018-09-28T11:34:25.036Z,4892
2018-09-28T11:35:39.177Z,5220
2018-09-28T11:36:53.263Z,5448
2018-09-28T11:38:07.793Z,5228
2018-09-28T11:39:22.532Z,5080
2018-09-28T11:40:36.744Z,5256
2018-09-28T11:41:51.143Z,5396
2018-09-28T11:43:05.001Z,5708
2018-09-28T11:44:19.663Z,5880
2018-09-28T11:45:33.082Z,5992
2018-09-28T11:46:47.298Z,6268
2018-09-28T11:48:01.188Z,6380
2018-09-28T11:49:16.361Z,6288
2018-09-28T11:50:30.475Z,5920
2018-09-28T11:51:44.796Z,5568
2018-09-28T11:52:59.141Z,5360
2018-09-28T11:54:13.216Z,5212
2018-09-28T11:55:27.590Z,5116
2018-09-28T11:56:41.964Z,5084
2018-09-28T11:57:55.799Z,4944
2018-09-28T11:59:09.875Z,4524
2018-09-28T12:00:24.217Z,4388
2018-09-28T12:01:38.906Z,4308
2018-09-28T12:02:53.039Z,4416
2018-09-28T12:04:06.898Z,4632
2018-09-28T12:05:21.688Z,4724
2018-09-28T12:06:37.124Z,4848
2018-09-28T12:07:51.013Z,5020
2018-09-28T12:09:05.121Z,5148
2018-09-28T12:10:19.088Z,5092
2018-09-28T12:11:33.437Z,5036
2018-09-28T12:12:48.315Z,4956
2018-09-28T12:14:02.440Z,4484
2018-09-28T12:15:16.673Z,3992
2018-09-28T12:16:30.915Z,3828
2018-09-28T12:17:45.339Z,3800
2018-09-28T12:18:59.141Z,3644
2018-09-28T12:20:13.204Z,3508
2018-09-28T12:21:27.378Z,3576
2018-09-28T12:22:41.876Z,3784
2018-09-28T12:23:55.974Z,3884
2018-09-28T12:25:10.628Z,3732
2018-09-28T12:26:24.774Z,3676
2018-09-28T12:27:39.346Z,3772
2018-09-28T12:28:53.356Z,3948
2018-09-28T12:30:07.570Z,4240
2018-09-28T12:31:22.032Z,4520
2018-09-28T12:32:36.253Z,4572
2018-09-28T12:33:50.333Z,4516
2018-09-28T12:35:04.772Z,4456
2018-09-28T12:36:18.793Z,4368
2018-09-28T12:37:33.662Z,4228
2018-09-28T12:38:47.366Z,4168
2018-09-28T12:40:02.029Z,4072
2018-09-28T12:41:31.697Z,4044
2018-09-28T12:42:46.279Z,4092
2018-09-28T12:44:00.850Z,4004
2018-09-28T12:45:15.578Z,3960
2018-09-28T12:46:29.443Z,4024
2018-09-28T12:47:43.354Z,3912
2018-09-28T12:48:58.596Z,3644
2018-09-28T12:50:13.083Z,3428
2018-09-28T12:51:27.255Z,3296
2018-09-28T12:52:41.425Z,3272
2018-09-28T12:53:55.740Z,3264
2018-09-28T12:55:10.556Z,3212
2018-09-28T12:56:24.987Z,3064
2018-09-28T12:57:39.150Z,3188
2018-09-28T12:58:53.504Z,3344
2018-09-28T13:00:07.480Z,3520
2018-09-28T13:01:23.035Z,3816
2018-09-28T13:02:37.023Z,4116
2018-09-28T13:03:51.764Z,4344
2018-09-28T13:05:05.926Z,4428
2018-09-28T13:06:20.585Z,4704
2018-09-28T13:07:35.463Z,5072
2018-09-28T13:08:49.984Z,5280
2018-09-28T13:10:04.162Z,5252
2018-09-28T13:11:18.317Z,4992
2018-09-28T13:12:32.840Z,4884
2018-09-28T13:13:46.551Z,4860
2018-09-28T13:15:01.698Z,4712
2018-09-28T13:16:16.612Z,4492
2018-09-28T13:17:30.730Z,4476
2018-09-28T13:18:45.830Z,4428
2018-09-28T13:20:00.661Z,4300
2018-09-28T13:21:15.419Z,4136
2018-09-28T13:22:29.617Z,4008
2018-09-28T13:23:43.797Z,3852
2018-09-28T13:24:58.177Z,3596
2018-09-28T13:26:12.741Z,3348
2018-09-28T13:27:41.409Z,3132
2018-09-28T13:28:54.833Z,2956
2018-09-28T13:30:08.804Z,2748
2018-09-28T13:31:23.457Z,2600
2018-09-28T13:32:37.908Z,2520
2018-09-28T13:33:51.903Z,2484
2018-09-28T13:35:06.336Z,2412
2018-09-28T13:36:19.986Z,2240
2018-09-28T13:37:35.018Z,1996
2018-09-28T13:38:49.559Z,1816
2018-09-28T13:40:03.436Z,1744
2018-09-28T13:41:17.128Z,1680
2018-09-28T13:42:31.983Z,1612
2018-09-28T13:43:46.207Z,1520
2018-09-28T13:45:00.751Z,1432
2018-09-28T13:46:16.210Z,1360
2018-09-28T13:47:30.523Z,1324
2018-09-28T13:48:45.068Z,1320
2018-09-28T13:49:59.167Z,1260
2018-09-28T13:51:13.803Z,1180
2018-09-28T13:52:43.074Z,1160
2018-09-28T13:53:57.531Z,1168
2018-09-28T13:55:11.722Z,1164
2018-09-28T13:56:26.323Z,1164
2018-09-28T13:57:40.570Z,1184
2018-09-28T13:58:55.451Z,1204
2018-09-28T14:00:09.450Z,1228
2018-09-28T14:01:23.609Z,1228
2018-09-28T14:02:38.406Z,1216
2018-09-28T14:03:53.061Z,1200
2018-09-28T14:05:06.883Z,1164
2018-09-28T14:06:21.706Z,1144
2018-09-28T14:07:37.020Z,1140
2018-09-28T14:08:52.274Z,1144
2018-09-28T14:10:06.887Z,1168
2018-09-28T14:11:21.588Z,1216
2018-09-28T14:12:35.905Z,1280
2018-09-28T14:13:50.779Z,1344
2018-09-28T14:15:04.753Z,1380
2018-09-28T14:16:19.598Z,1360
2018-09-28T14:17:34.633Z,1292
2018-09-28T14:18:48.898Z,1212
2018-09-28T14:20:03.696Z,1144
2018-09-28T14:21:32.012Z,1092
2018-09-28T14:22:46.475Z,1068
2018-09-28T14:24:01.227Z,1060
2018-09-28T14:25:15.481Z,1068
2018-09-28T14:26:30.595Z,1068
2018-09-28T14:27:44.871Z,1020
2018-09-28T14:28:58.605Z,964
2018-09-28T14:30:12.432Z,944
2018-09-28T14:31:42.325Z,952
2018-09-28T14:32:57.057Z,980
2018-09-28T14:34:11.215Z,976
2018-09-28T14:35:25.603Z,980
2018-09-28T14:36:40.040Z,976
2018-09-28T14:38:08.897Z,976
2018-09-28T14:39:23.275Z,968
2018-09-28T14:40:52.405Z,940
2018-09-28T14:42:07.286Z,848
2018-09-28T14:43:21.807Z,812
2018-09-28T14:44:36.252Z,860
2018-09-28T14:45:50.581Z,848
2018-09-28T14:47:04.748Z,784
2018-09-28T14:48:19.051Z,724
2018-09-28T14:49:33.840Z,684
2018-09-28T14:50:48.485Z,668
2018-09-28T14:52:02.680Z,672
2018-09-28T14:53:17.136Z,684
2018-09-28T14:54:32.138Z,732
2018-09-28T14:55:46.858Z,772
2018-09-28T14:57:00.777Z,776
2018-09-28T14:58:14.854Z,768
2018-09-28T14:59:28.984Z,748
2018-09-28T15:00:42.893Z,708
2018-09-28T15:01:57.683Z,676
2018-09-28T15:03:12.346Z,668
2018-09-28T15:04:27.218Z,660
2018-09-28T15:05:41.721Z,624
2018-09-28T15:06:56.758Z,620
2018-09-28T15:08:11.686Z,644
2018-09-28T15:09:26.253Z,660
2018-09-28T15:10:40.354Z,656
2018-09-28T15:11:54.587Z,636
2018-09-28T15:13:08.433Z,612
2018-09-28T15:14:23.720Z,580
2018-09-28T15:15:38.197Z,552
2018-09-28T15:16:53.318Z,532
2018-09-28T15:18:07.047Z,528
2018-09-28T15:19:21.776Z,504
2018-09-28T15:20:35.788Z,484
2018-09-28T15:21:50.389Z,484
2018-09-28T15:23:04.325Z,488
2018-09-28T15:24:18.454Z,480
2018-09-28T15:25:32.343Z,480
2018-09-28T15:26:46.974Z,448
2018-09-28T15:28:01.339Z,392
2018-09-28T15:29:15.464Z,356
2018-09-28T15:30:30.413Z,328
2018-09-28T15:31:45.017Z,296
2018-09-28T15:32:59.054Z,292
2018-09-28T15:34:12.487Z,284
2018-09-28T15:35:26.793Z,268
2018-09-28T15:36:41.144Z,264
2018-09-28T15:37:54.989Z,256
2018-09-28T15:39:09.183Z,244
2018-09-28T15:40:23.312Z,236
2018-09-28T15:41:37.687Z,228
2018-09-28T15:42:51.866Z,212
2018-09-28T15:44:06.411Z,196
2018-09-28T15:45:21.094Z,188
2018-09-28T15:46:35.039Z,188
2018-09-28T15:48:03.928Z,184
2018-09-28T15:49:18.496Z,192
2018-09-28T15:50:32.886Z,200
2018-09-28T15:51:47.301Z,200
2018-09-28T15:53:01.270Z,208
2018-09-28T15:54:15.096Z,208
2018-09-28T15:55:29.221Z,212
2018-09-28T15:56:43.200Z,224
2018-09-28T15:57:57.558Z,232
2018-09-28T15:59:11.469Z,256
2018-09-28T16:00:25.916Z,260
2018-09-28T16:01:40.486Z,260
2018-09-28T16:02:54.823Z,276
2018-09-28T16:04:08.920Z,280
2018-09-28T16:05:23.224Z,276
2018-09-28T16:06:37.607Z,252
2018-09-28T16:07:51.910Z,244
2018-09-28T16:09:06.057Z,244
2018-09-28T16:10:20.117Z,244
2018-09-28T16:11:34.260Z,240
2018-09-28T16:12:48.145Z,228
2018-09-28T16:14:02.532Z,216
2018-09-28T16:15:16.985Z,224
2018-09-28T16:16:30.863Z,236
2018-09-28T16:17:44.752Z,252
2018-09-28T16:18:58.684Z,268
2018-09-28T16:20:12.327Z,280
2018-09-28T16:21:27.505Z,280
2018-09-28T16:22:41.890Z,268
2018-09-28T16:23:55.748Z,240
2018-09-28T16:25:10.241Z,208
2018-09-28T16:26:24.088Z,184
2018-09-28T16:27:38.473Z,168
2018-09-28T16:28:52.782Z,152
2018-09-28T16:30:07.098Z,136
2018-09-28T16:31:21.174Z,128
2018-09-28T16:32:35.574Z,116
2018-09-28T16:33:50.224Z,104
2018-09-28T16:35:04.324Z,92
2018-09-28T16:36:18.090Z,84
2018-09-28T16:37:32.533Z,80
2018-09-28T16:38:46.403Z,76
2018-09-28T16:40:01.227Z,76
2018-09-28T16:41:15.107Z,80
2018-09-28T16:42:29.168Z,80
2018-09-28T16:43:58.163Z,76
2018-09-28T16:46:41.966Z,80
2018-09-28T16:47:56.377Z,80
2018-09-28T16:49:10.045Z,80
2018-09-28T16:50:24.151Z,80
2018-09-28T16:51:38.007Z,76
2018-09-28T16:52:52.209Z,72
2018-09-28T16:54:21.603Z,64
2018-09-28T16:55:36.063Z,56
2018-09-28T16:56:50.430Z,52
2018-09-28T16:58:05.128Z,52
2018-09-28T16:59:33.928Z,44
2018-09-28T17:00:48.512Z,40
2018-09-28T17:02:02.620Z,40
2018-09-28T17:03:17.110Z,36
2018-09-28T17:04:31.263Z,36
2018-09-28T17:06:15.121Z,36
2018-09-28T17:07:29.465Z,36
2018-09-28T17:08:43.376Z,32
2018-09-28T17:10:12.173Z,28
2018-09-28T17:11:25.600Z,28
2018-09-28T17:12:40.527Z,24
2018-09-28T17:13:55.146Z,20
2018-09-28T17:15:09.333Z,16
2018-09-28T17:16:23.206Z,12
2018-09-28T17:17:37.087Z,12
2018-09-28T17:21:19.807Z,8
2018-09-28T17:22:33.419Z,8
2018-09-28T17:23:47.691Z,4
2018-09-28T17:25:02.487Z,4
2018-09-28T17:26:16.569Z,4
2018-09-28T17:27:31.134Z,4
2018-09-28T17:28:45.902Z,4
2018-09-28T17:30:00.248Z,0
2018-09-28T17:31:28.763Z,4
2018-09-28T17:32:43.233Z,4
2018-09-28T17:33:56.861Z,0
2018-09-28T17:35:11.068Z,0
2018-09-28T17:36:25.146Z,0
2018-09-28T17:37:39.808Z,0
2018-09-28T17:38:54.675Z,0
2018-09-28T17:40:09.101Z,0
2018-09-28T17:41:23.633Z,0